Time;durP1;ratioP1;P1;durP2;ratioP2;P2;SDS_P1;SDS_P2;PMS_P1;PMS_P2;Temp;Humidity;BMP_temperature;BMP_pressure;BME280_temperature;BME280_humidity;BME280_pressure;Samples;Min_cycle;Max_cycle;Signal;HPM_P1;HPM_P2
2023/09/27 00:01:24;;;;;;;;;;;;;;;;;;5050682;28;19921;-77
2023/09/27 00:03:50;;;;;;;;;;;;;;;;;;5044131;28;19956;-75
2023/09/27 00:06:16;;;;;;;;;;;;;;;;;;5054067;28;19924;-75
2023/09/27 00:08:42;;;;;;;;;;;;;;;;;;5045242;28;20287;-75
2023/09/27 00:11:08;;;;;;;;;;;;;;;;;;5045794;28;19921;-74
2023/09/27 00:13:34;;;;;;;;;;;;;;;;;;5046249;28;19921;-73
2023/09/27 00:16:00;;;;;;;;;;;;;;;;;;5063104;28;19928;-74
2023/09/27 00:18:26;;;;;;;;;;;;;;;;;;5049899;28;19924;-77
2023/09/27 00:20:52;;;;;;;;;;;;;;;;;;5051635;28;20013;-75
2023/09/27 00:23:18;;;;;;;;;;;;;;;;;;5030396;28;19921;-73
2023/09/27 00:25:44;;;;;;;;;;;;;;;;;;5035603;28;20344;-74
2023/09/27 00:28:10;;;;;;;;;;;;;;;;;;5050788;28;19943;-74
2023/09/27 00:30:36;;;;;;;;;;;;;;;;;;5047773;28;19976;-74
2023/09/27 00:33:02;;;;;;;;;;;;;;;;;;5034101;28;19932;-74
2023/09/27 00:35:28;;;;;;;;;;;;;;;;;;5029296;28;19975;-77
2023/09/27 00:37:54;;;;;;;;;;;;;;;;;;5029533;28;19960;-73
2023/09/27 00:40:23;;;;;;;;;;;;;;;;;;5029272;28;20015;-74
2023/09/27 00:42:48;;;;;;;;;;;;;;;;;;5030057;28;20412;-73
2023/09/27 00:45:14;;;;;;;;;;;;;;;;;;5031069;28;19925;-74
2023/09/27 00:47:41;;;;;;;;;;;;;;;;;;5047894;28;19970;-74
2023/09/27 00:50:07;;;;;;;;;;;;;;;;;;5049937;28;19925;-74
2023/09/27 00:52:33;;;;;;;;;;;;;;;;;;5048715;28;19924;-73
2023/09/27 00:54:59;;;;;;;;;;;;;;;;;;5034957;28;19921;-74
2023/09/27 00:57:25;;;;;;;;;;;;;;;;;;5030135;28;19974;-74
2023/09/27 00:59:51;;;;;;;;;;;;;;;;;;5032707;28;19917;-73
2023/09/27 01:02:17;;;;;;;;;;;;;;;;;;5033581;28;19921;-74
2023/09/27 01:04:43;;;;;;;;;;;;;;;;;;5033784;28;19920;-73
2023/09/27 01:07:09;;;;;;;;;;;;;;;;;;5049162;28;20011;-73
2023/09/27 01:09:37;;;;;;;;;;;;;;;;;;5051450;28;20057;-75
2023/09/27 01:12:03;;;;;;;;;;;;;;;;;;5036013;28;20387;-73
2023/09/27 01:14:29;;;;;;;;;;;;;;;;;;5050162;28;20294;-73
2023/09/27 01:16:55;;;;;;;;;;;;;;;;;;5047807;28;19925;-73
2023/09/27 01:19:21;;;;;;;;;;;;;;;;;;5053144;28;19947;-74
2023/09/27 01:21:47;;;;;;;;;;;;;;;;;;5045570;28;19925;-74
2023/09/27 01:24:13;;;;;;;;;;;;;;;;;;5071475;28;20392;-74
2023/09/27 01:26:39;;;;;;;;;;;;;;;;;;5072555;28;20258;-73
2023/09/27 01:29:04;;;;;;;;;;;;;;;;;;5073514;28;19920;-74
2023/09/27 01:31:30;;;;;;;;;;;;;;;;;;5069700;28;19963;-73
2023/09/27 01:33:56;;;;;;;;;;;;;;;;;;5053155;28;19952;-73
2023/09/27 01:36:22;;;;;;;;;;;;;;;;;;5029755;28;19921;-73
2023/09/27 01:38:48;;;;;;;;;;;;;;;;;;5035562;28;19928;-74
2023/09/27 01:41:14;;;;;;;;;;;;;;;;;;5052928;28;19928;-74
2023/09/27 01:43:40;;;;;;;;;;;;;;;;;;5052426;28;19920;-74
2023/09/27 01:46:06;;;;;;;;;;;;;;;;;;5053153;28;19948;-75
2023/09/27 01:48:32;;;;;;;;;;;;;;;;;;5053795;28;20007;-73
2023/09/27 01:50:58;;;;;;;;;;;;;;;;;;5051609;28;19986;-73
2023/09/27 01:53:24;;;;;;;;;;;;;;;;;;5051163;28;19921;-75
2023/09/27 01:55:50;;;;;;;;;;;;;;;;;;5054978;28;19921;-76
2023/09/27 01:58:16;;;;;;;;;;;;;;;;;;5065134;28;19925;-76
2023/09/27 02:00:42;;;;;;;;;;;;;;;;;;5046492;28;19925;-75
2023/09/27 02:03:08;;;;;;;;;;;;;;;;;;5049242;28;19921;-77
2023/09/27 02:05:34;;;;;;;;;;;;;;;;;;5049027;28;19921;-76
2023/09/27 02:08:00;;;;;;;;;;;;;;;;;;5048165;28;20035;-75
2023/09/27 02:10:26;;;;;;;;;;;;;;;;;;5048223;28;20194;-75
2023/09/27 02:12:52;;;;;;;;;;;;;;;;;;5031849;28;19921;-76
2023/09/27 02:15:18;;;;;;;;;;;;;;;;;;5033458;28;19921;-75
2023/09/27 02:17:44;;;;;;;;;;;;;;;;;;5051607;28;20298;-75
2023/09/27 02:20:10;;;;;;;;;;;;;;;;;;5052206;28;19971;-75
2023/09/27 02:22:36;;;;;;;;;;;;;;;;;;5037464;28;19921;-75
2023/09/27 02:25:02;;;;;;;;;;;;;;;;;;5048718;28;19916;-75
2023/09/27 02:27:28;;;;;;;;;;;;;;;;;;5052391;28;20007;-75
2023/09/27 02:29:53;;;;;;;;;;;;;;;;;;5052662;28;20022;-75
2023/09/27 02:32:19;;;;;;;;;;;;;;;;;;5051385;28;19970;-76
2023/09/27 02:34:46;;;;;;;;;;;;;;;;;;5051817;28;19921;-75
2023/09/27 02:37:15;;;;;;;;;;;;;;;;;;5051873;28;19921;-75
2023/09/27 02:39:41;;;;;;;;;;;;;;;;;;5048436;28;20004;-75
2023/09/27 02:42:07;;;;;;;;;;;;;;;;;;5043201;28;19964;-75
2023/09/27 02:44:33;;;;;;;;;;;;;;;;;;5048688;28;19970;-75
2023/09/27 02:46:59;;;;;;;;;;;;;;;;;;5064925;28;19920;-76
2023/09/27 02:49:25;;;;;;;;;;;;;;;;;;5051682;28;20019;-76
2023/09/27 02:51:55;;;;;;;;;;;;;;;;;;5050805;28;19921;-76
2023/09/27 02:54:21;;;;;;;;;;;;;;;;;;5049728;28;19995;-75
2023/09/27 02:56:47;;;;;;;;;;;;;;;;;;5051354;28;20018;-80
2023/09/27 02:59:13;;;;;;;;;;;;;;;;;;5051273;28;20359;-75
2023/09/27 03:01:40;;;;;;;;;;;;;;;;;;5051670;28;19921;-76
2023/09/27 03:04:06;;;;;;;;;;;;;;;;;;5050624;28;19993;-75
2023/09/27 03:06:32;;;;;;;;;;;;;;;;;;5048379;28;20397;-75
2023/09/27 03:08:58;;;;;;;;;;;;;;;;;;5049168;28;19921;-76
2023/09/27 03:11:24;;;;;;;;;;;;;;;;;;5047451;28;19921;-75
2023/09/27 03:13:50;;;;;;;;;;;;;;;;;;5030641;28;19921;-76
2023/09/27 03:16:16;;;;;;;;;;;;;;;;;;5032551;28;19932;-75
2023/09/27 03:18:42;;;;;;;;;;;;;;;;;;5051208;28;19921;-75
2023/09/27 03:21:08;;;;;;;;;;;;;;;;;;5047123;28;20543;-76
2023/09/27 03:23:34;;;;;;;;;;;;;;;;;;5030175;28;20290;-75
2023/09/27 03:26:00;;;;;;;;;;;;;;;;;;5030166;28;19983;-76
2023/09/27 03:28:26;;;;;;;;;;;;;;;;;;5040048;28;19935;-75
2023/09/27 03:30:52;;;;;;;;;;;;;;;;;;5043867;28;19967;-75
2023/09/27 03:33:18;;;;;;;;;;;;;;;;;;5047604;28;19928;-76
2023/09/27 03:35:45;;;;;;;;;;;;;;;;;;5047600;28;19921;-75
2023/09/27 03:38:11;;;;;;;;;;;;;;;;;;5046390;28;19940;-75
2023/09/27 03:40:37;;;;;;;;;;;;;;;;;;5057479;28;20374;-76
2023/09/27 03:43:03;;;;;;;;;;;;;;;;;;5050146;28;19978;-75
2023/09/27 03:45:30;;;;;;;;;;;;;;;;;;5050676;28;20420;-75
2023/09/27 03:47:56;;;;;;;;;;;;;;;;;;5048103;28;19975;-76
2023/09/27 03:50:22;;;;;;;;;;;;;;;;;;5053861;28;19929;-76
2023/09/27 03:52:48;;;;;;;;;;;;;;;;;;5062892;28;20655;-76
2023/09/27 03:55:14;;;;;;;;;;;;;;;;;;5056171;28;19959;-75
2023/09/27 03:57:40;;;;;;;;;;;;;;;;;;5057562;28;19943;-76
2023/09/27 04:00:14;;;;;;;;;;;;;;;;;;5057046;28;19924;-75
2023/09/27 04:02:40;;;;;;;;;;;;;;;;;;5065901;28;20388;-76
2023/09/27 04:05:06;;;;;;;;;;;;;;;;;;5049526;28;19921;-76
2023/09/27 04:07:32;;;;;;;;;;;;;;;;;;5048052;28;20371;-75
2023/09/27 04:09:58;;;;;;;;;;;;;;;;;;5049086;28;20015;-75
2023/09/27 04:12:24;;;;;;;;;;;;;;;;;;5049565;28;20011;-76
2023/09/27 04:14:50;;;;;;;;;;;;;;;;;;5043953;28;19928;-75
2023/09/27 04:17:16;;;;;;;;;;;;;;;;;;5031146;28;19921;-76
2023/09/27 04:19:41;;;;;;;;;;;;;;;;;;5047210;28;19972;-75
2023/09/27 04:22:07;;;;;;;;;;;;;;;;;;5063120;28;19921;-76
2023/09/27 04:24:33;;;;;;;;;;;;;;;;;;5048886;28;19920;-75
2023/09/27 04:26:59;;;;;;;;;;;;;;;;;;5050131;28;20398;-75
2023/09/27 04:29:26;;;;;;;;;;;;;;;;;;5050417;28;20325;-75
2023/09/27 04:31:52;;;;;;;;;;;;;;;;;;5050623;28;19920;-75
2023/09/27 04:34:18;;;;;;;;;;;;;;;;;;5041137;28;19975;-75
2023/09/27 04:36:44;;;;;;;;;;;;;;;;;;5051059;28;19976;-76
2023/09/27 04:39:18;;;;;;;;;;;;;;;;;;5053645;28;19924;-76
2023/09/27 04:41:46;;;;;;;;;;;;;;;;;;5052542;28;19928;-76
2023/09/27 04:44:12;;;;;;;;;;;;;;;;;;5044148;28;19971;-76
2023/09/27 04:46:38;;;;;;;;;;;;;;;;;;5037603;28;19973;-76
2023/09/27 04:49:04;;;;;;;;;;;;;;;;;;5052787;28;19925;-75
2023/09/27 04:51:30;;;;;;;;;;;;;;;;;;5054942;28;20007;-75
2023/09/27 04:54:00;;;;;;;;;;;;;;;;;;5052711;28;19921;-75
2023/09/27 04:56:26;;;;;;;;;;;;;;;;;;5053880;28;20377;-75
2023/09/27 04:58:52;;;;;;;;;;;;;;;;;;5055336;28;19966;-76
2023/09/27 05:01:18;;;;;;;;;;;;;;;;;;5044291;28;20184;-77
2023/09/27 05:03:44;;;;;;;;;;;;;;;;;;5033585;28;19928;-75
2023/09/27 05:06:10;;;;;;;;;;;;;;;;;;5049971;28;20030;-75
2023/09/27 05:08:36;;;;;;;;;;;;;;;;;;5052474;28;19931;-75
2023/09/27 05:11:02;;;;;;;;;;;;;;;;;;5050784;28;19930;-78
2023/09/27 05:13:28;;;;;;;;;;;;;;;;;;5054053;28;19921;-77
2023/09/27 05:15:54;;;;;;;;;;;;;;;;;;5034175;28;19979;-76
2023/09/27 05:18:20;;;;;;;;;;;;;;;;;;5050598;28;20166;-76
2023/09/27 05:20:46;;;;;;;;;;;;;;;;;;5053830;28;19927;-76
2023/09/27 05:23:12;;;;;;;;;;;;;;;;;;5052168;28;20019;-78
2023/09/27 05:25:38;;;;;;;;;;;;;;;;;;5053080;28;19925;-76
2023/09/27 05:28:04;;;;;;;;;;;;;;;;;;5053309;28;19928;-78
2023/09/27 05:30:31;;;;;;;;;;;;;;;;;;5053893;28;19921;-76
2023/09/27 05:32:57;;;;;;;;;;;;;;;;;;5044870;28;19924;-77
2023/09/27 05:35:23;;;;;;;;;;;;;;;;;;5018262;28;20090;-77
2023/09/27 05:37:50;;;;;;;;;;;;;;;;;;5036729;28;20003;-77
2023/09/27 05:40:16;;;;;;;;;;;;;;;;;;5032307;28;20044;-77
2023/09/27 05:42:42;;;;;;;;;;;;;;;;;;5069113;28;20074;-74
2023/09/27 05:45:11;;;;;;;;;;;;;;;;;;5066973;28;20400;-75
2023/09/27 05:47:37;;;;;;;;;;;;;;;;;;5053489;28;19927;-73
2023/09/27 05:50:04;;;;;;;;;;;;;;;;;;5053169;28;19921;-77
2023/09/27 05:52:30;;;;;;;;;;;;;;;;;;5051374;28;19921;-75
2023/09/27 05:54:56;;;;;;;;;;;;;;;;;;5052147;28;19950;-74
2023/09/27 05:57:22;;;;;;;;;;;;;;;;;;5052471;28;19920;-74
2023/09/27 05:59:48;;;;;;;;;;;;;;;;;;5053373;28;19920;-74
2023/09/27 06:02:17;;;;;;;;;;;;;;;;;;5052640;28;19921;-74
2023/09/27 06:04:43;;;;;;;;;;;;;;;;;;5036384;28;19921;-74
2023/09/27 06:07:13;;;;;;;;;;;;;;;;;;5029450;28;19972;-74
2023/09/27 06:09:39;;;;;;;;;;;;;;;;;;5051733;28;19920;-74
2023/09/27 06:12:05;;;;;;;;;;;;;;;;;;5052719;28;19978;-78
2023/09/27 06:14:31;;;;;;;;;;;;;;;;;;5034514;28;19921;-74
2023/09/27 06:16:58;;;;;;;;;;;;;;;;;;5036905;28;19960;-74
2023/09/27 06:19:24;;;;;;;;;;;;;;;;;;5040834;28;20024;-74
2023/09/27 06:21:50;;;;;;;;;;;;;;;;;;5049537;28;19972;-74
2023/09/27 06:24:16;;;;;;;;;;;;;;;;;;5030761;28;20382;-74
2023/09/27 06:26:42;;;;;;;;;;;;;;;;;;5049350;28;20302;-73
2023/09/27 06:29:09;;;;;;;;;;;;;;;;;;5051823;28;19973;-77
2023/09/27 06:31:35;;;;;;;;;;;;;;;;;;5052590;28;19920;-74
2023/09/27 06:34:01;;;;;;;;;;;;;;;;;;5053191;28;20281;-75
2023/09/27 06:36:29;;;;;;;;;;;;;;;;;;5015752;28;20024;-74
2023/09/27 06:38:55;;;;;;;;;;;;;;;;;;5031281;28;20351;-74
2023/09/27 06:41:21;;;;;;;;;;;;;;;;;;5049055;28;19927;-74
2023/09/27 06:43:47;;;;;;;;;;;;;;;;;;5037638;28;19921;-73
2023/09/27 06:46:15;;;;;;;;;;;;;;;;;;5049814;28;19921;-73
2023/09/27 06:48:41;;;;;;;;;;;;;;;;;;5052165;28;20372;-73
2023/09/27 06:51:07;;;;;;;;;;;;;;;;;;5048061;28;19964;-75
2023/09/27 06:53:33;;;;;;;;;;;;;;;;;;5047442;28;19966;-73
2023/09/27 06:55:59;;;;;;;;;;;;;;;;;;5056466;28;19932;-73
2023/09/27 06:58:25;;;;;;;;;;;;;;;;;;5031557;28;19927;-78
2023/09/27 07:00:51;;;;;;;;;;;;;;;;;;5048057;28;19920;-75
2023/09/27 07:03:19;;;;;;;;;;;;;;;;;;5054464;28;20013;-78
2023/09/27 07:05:46;;;;;;;;;;;;;;;;;;5061532;28;19964;-76
2023/09/27 07:08:12;;;;;;;;;;;;;;;;;;5061125;28;19928;-78
2023/09/27 07:10:38;;;;;;;;;;;;;;;;;;5052070;28;19920;-75
2023/09/27 07:13:04;;;;;;;;;;;;;;;;;;5059442;28;19920;-74
2023/09/27 07:15:30;;;;;;;;;;;;;;;;;;5062364;28;19927;-75
2023/09/27 07:17:56;;;;;;;;;;;;;;;;;;5057606;28;20003;-75
2023/09/27 07:20:27;;;;;;;;;;;;;;;;;;5057631;28;19927;-75
2023/09/27 07:22:54;;;;;;;;;;;;;;;;;;5057224;28;20423;-75
2023/09/27 07:25:20;;;;;;;;;;;;;;;;;;5055468;28;20030;-76
2023/09/27 07:27:46;;;;;;;;;;;;;;;;;;5048976;28;19931;-76
2023/09/27 07:30:17;;;;;;;;;;;;;;;;;;5036010;28;19921;-76
2023/09/27 07:32:43;;;;;;;;;;;;;;;;;;5045407;28;19959;-75
2023/09/27 07:35:10;;;;;;;;;;;;;;;;;;5053864;28;19920;-76
2023/09/27 07:37:36;;;;;;;;;;;;;;;;;;5052969;28;19916;-76
2023/09/27 07:40:04;;;;;;;;;;;;;;;;;;5032131;28;19925;-76
2023/09/27 07:42:30;;;;;;;;;;;;;;;;;;5058065;28;19935;-73
2023/09/27 07:44:56;;;;;;;;;;;;;;;;;;5044361;28;19928;-73
2023/09/27 07:47:23;;;;;;;;;;;;;;;;;;5065694;28;19920;-75
2023/09/27 07:49:49;;;;;;;;;;;;;;;;;;5053597;28;19920;-75
2023/09/27 07:52:15;;;;;;;;;;;;;;;;;;5056180;28;19925;-77
2023/09/27 07:54:41;;;;;;;;;;;;;;;;;;5063489;28;20396;-75
2023/09/27 07:57:08;;;;;;;;;;;;;;;;;;5073903;28;19920;-75
2023/09/27 07:59:35;;;;;;;;;;;;;;;;;;5087009;28;19920;-75
2023/09/27 08:02:01;;;;;;;;;;;;;;;;;;5058271;28;19928;-75
2023/09/27 08:04:27;;;;;;;;;;;;;;;;;;5070104;28;20118;-75
2023/09/27 08:06:53;;;;;;;;;;;;;;;;;;5053153;28;19921;-75
2023/09/27 08:09:21;;;;;;;;;;;;;;;;;;5062230;28;19920;-78
2023/09/27 08:11:47;;;;;;;;;;;;;;;;;;5073583;28;19960;-74
2023/09/27 08:14:16;;;;;;;;;;;;;;;;;;5065463;28;19976;-75
2023/09/27 08:16:42;;;;;;;;;;;;;;;;;;5070778;28;20024;-75
2023/09/27 08:19:08;;;;;;;;;;;;;;;;;;5074706;28;19963;-75
2023/09/27 08:21:34;;;;;;;;;;;;;;;;;;5073838;28;19969;-75
2023/09/27 08:24:00;;;;;;;;;;;;;;;;;;5073235;28;19921;-74
2023/09/27 08:26:27;;;;;;;;;;;;;;;;;;5074146;28;20576;-75
2023/09/27 08:28:53;;;;;;;;;;;;;;;;;;5068934;28;20328;-75
2023/09/27 08:31:19;;;;;;;;;;;;;;;;;;5072945;28;20011;-75
2023/09/27 08:33:45;;;;;;;;;;;;;;;;;;5067226;28;19935;-75
2023/09/27 08:36:11;;;;;;;;;;;;;;;;;;5056959;28;19920;-73
2023/09/27 08:38:37;;;;;;;;;;;;;;;;;;5070009;28;19920;-76
2023/09/27 08:41:06;;;;;;;;;;;;;;;;;;5064278;28;19920;-74
2023/09/27 08:43:32;;;;;;;;;;;;;;;;;;5060427;28;19924;-75
2023/09/27 08:45:58;;;;;;;;;;;;;;;;;;5074119;28;19969;-75
2023/09/27 08:48:24;;;;;;;;;;;;;;;;;;5073004;28;20361;-76
2023/09/27 08:50:50;;;;;;;;;;;;;;;;;;5073668;28;20341;-75
2023/09/27 08:53:16;;;;;;;;;;;;;;;;;;5073499;28;19924;-76
2023/09/27 08:55:42;;;;;;;;;;;;;;;;;;5056573;28;20491;-75
2023/09/27 08:58:09;;;;;;;;;;;;;;;;;;5074556;28;19921;-76
2023/09/27 09:00:36;;;;;;;;;;;;;;;;;;5062301;28;20354;-75
2023/09/27 09:03:02;;;;;;;;;;;;;;;;;;5058521;28;19924;-75
2023/09/27 09:05:28;;;;;;;;;;;;;;;;;;5053712;28;19928;-76
2023/09/27 09:07:55;;;;;;;;;;;;;;;;;;5053459;28;20015;-75
2023/09/27 09:10:22;;;;;;;;;;;;;;;;;;5053332;28;19927;-75
2023/09/27 09:12:48;;;;;;;;;;;;;;;;;;5053169;28;19920;-75
2023/09/27 09:15:15;;;;;;;;;;;;;;;;;;5054159;28;20354;-75
2023/09/27 09:17:47;;;;;;;;;;;;;;;;;;5049727;28;20275;-75
2023/09/27 09:20:27;;;;;;;;;;;;;;;;;;5033305;28;19947;-76
2023/09/27 09:22:57;;;;;;;;;;;;;;;;;;5046777;28;19921;-77
2023/09/27 09:25:23;;;;;;;;;;;;;;;;;;5052806;28;19921;-76
2023/09/27 09:27:49;;;;;;;;;;;;;;;;;;5045208;28;20015;-76
2023/09/27 09:30:15;;;;;;;;;;;;;;;;;;5034031;28;19925;-76
2023/09/27 09:32:41;;;;;;;;;;;;;;;;;;5048776;28;19921;-76
2023/09/27 09:35:09;;;;;;;;;;;;;;;;;;5067145;28;19955;-77
2023/09/27 09:37:35;;;;;;;;;;;;;;;;;;5052672;28;20011;-74
2023/09/27 09:40:01;;;;;;;;;;;;;;;;;;5041656;28;19928;-74
2023/09/27 09:42:27;;;;;;;;;;;;;;;;;;5052944;28;19925;-78
2023/09/27 09:44:53;;;;;;;;;;;;;;;;;;5058925;28;19945;-74
2023/09/27 09:47:19;;;;;;;;;;;;;;;;;;5057240;28;20392;-74
2023/09/27 09:49:46;;;;;;;;;;;;;;;;;;5049361;28;19921;-74
2023/09/27 09:52:12;;;;;;;;;;;;;;;;;;5060574;28;19932;-72
2023/09/27 09:54:46;;;;;;;;;;;;;;;;;;5067812;28;19920;-72
2023/09/27 09:57:13;;;;;;;;;;;;;;;;;;5047047;28;20278;-73
2023/09/27 09:59:39;;;;;;;;;;;;;;;;;;5066458;28;20061;-72
2023/09/27 10:02:05;;;;;;;;;;;;;;;;;;5065463;28;20003;-72
2023/09/27 10:04:32;;;;;;;;;;;;;;;;;;5064988;28;19928;-75
2023/09/27 10:06:58;;;;;;;;;;;;;;;;;;5064109;28;19982;-74
2023/09/27 10:09:28;;;;;;;;;;;;;;;;;;5071563;28;19928;-74
2023/09/27 10:11:54;;;;;;;;;;;;;;;;;;5064363;28;20380;-74
2023/09/27 10:14:20;;;;;;;;;;;;;;;;;;5048381;28;19921;-74
2023/09/27 10:16:48;;;;;;;;;;;;;;;;;;5066584;28;19999;-72
2023/09/27 10:19:14;;;;;;;;;;;;;;;;;;5040159;28;19921;-76
2023/09/27 10:21:39;;;;;;;;;;;;;;;;;;5081370;28;19921;-72
2023/09/27 10:24:07;;;;;;;;;;;;;;;;;;5054443;28;19927;-74
2023/09/27 10:26:33;;;;;;;;;;;;;;;;;;5072095;28;20052;-81
2023/09/27 10:28:59;;;;;;;;;;;;;;;;;;5072432;28;20019;-79
2023/09/27 10:31:25;;;;;;;;;;;;;;;;;;5071231;28;20011;-77
2023/09/27 10:33:51;;;;;;;;;;;;;;;;;;5063095;28;19947;-79
2023/09/27 10:36:17;;;;;;;;;;;;;;;;;;5061521;28;20365;-77
2023/09/27 10:38:42;;;;;;;;;;;;;;;;;;5048134;28;20369;-77
2023/09/27 10:41:08;;;;;;;;;;;;;;;;;;5069078;28;19920;-79
2023/09/27 10:43:34;;;;;;;;;;;;;;;;;;5052239;28;19928;-80
2023/09/27 10:46:04;;;;;;;;;;;;;;;;;;5063425;28;19928;-77
2023/09/27 10:48:30;;;;;;;;;;;;;;;;;;5048296;28;19925;-76
2023/09/27 10:50:56;;;;;;;;;;;;;;;;;;5042886;28;19921;-77
2023/09/27 10:53:22;;;;;;;;;;;;;;;;;;5063753;28;19946;-77
2023/09/27 10:55:48;;;;;;;;;;;;;;;;;;5061105;28;19920;-77
2023/09/27 10:58:15;;;;;;;;;;;;;;;;;;5062422;28;19921;-80
2023/09/27 11:00:41;;;;;;;;;;;;;;;;;;5052781;28;20062;-74
2023/09/27 11:03:07;;;;;;;;;;;;;;;;;;5065638;28;20019;-75
2023/09/27 11:05:33;;;;;;;;;;;;;;;;;;5050794;28;20386;-71
2023/09/27 11:07:59;;;;;;;;;;;;;;;;;;5050733;28;19927;-71
2023/09/27 11:10:25;;;;;;;;;;;;;;;;;;5039372;28;19982;-81
2023/09/27 11:12:51;;;;;;;;;;;;;;;;;;5051716;28;19920;-72
2023/09/27 11:15:16;;;;;;;;;;;;;;;;;;5052854;28;19924;-80
2023/09/27 11:17:42;;;;;;;;;;;;;;;;;;5037837;28;19921;-75
2023/09/27 11:20:08;;;;;;;;;;;;;;;;;;5032699;28;19921;-76
2023/09/27 11:22:35;;;;;;;;;;;;;;;;;;5032150;28;19921;-79
2023/09/27 11:25:01;;;;;;;;;;;;;;;;;;5031452;28;19947;-79
2023/09/27 11:27:27;;;;;;;;;;;;;;;;;;5031732;28;20391;-77
2023/09/27 11:29:53;;;;;;;;;;;;;;;;;;5042219;28;19921;-82
2023/09/27 11:32:19;;;;;;;;;;;;;;;;;;5048464;28;19928;-82
2023/09/27 11:34:44;;;;;;;;;;;;;;;;;;5050262;28;19921;-85
2023/09/27 11:37:10;;;;;;;;;;;;;;;;;;5025387;28;19929;-81
2023/09/27 11:39:36;;;;;;;;;;;;;;;;;;5060496;28;19936;-81
2023/09/27 11:42:02;;;;;;;;;;;;;;;;;;5050240;28;19972;-81
2023/09/27 11:44:28;;;;;;;;;;;;;;;;;;5034246;28;20017;-80
2023/09/27 11:46:54;;;;;;;;;;;;;;;;;;5033147;28;19921;-77
2023/09/27 11:49:20;;;;;;;;;;;;;;;;;;5050010;28;19954;-76
2023/09/27 11:51:47;;;;;;;;;;;;;;;;;;5049656;28;20030;-77
2023/09/27 11:54:14;;;;;;;;;;;;;;;;;;5046966;28;19982;-76
2023/09/27 11:56:41;;;;;;;;;;;;;;;;;;5047002;28;20255;-78
2023/09/27 11:59:07;;;;;;;;;;;;;;;;;;5050031;28;19924;-77
2023/09/27 12:01:34;;;;;;;;;;;;;;;;;;5050836;28;19920;-77
2023/09/27 12:04:00;;;;;;;;;;;;;;;;;;5050453;28;19920;-78
2023/09/27 12:06:28;;;;;;;;;;;;;;;;;;5034355;28;19964;-77
2023/09/27 12:08:54;;;;;;;;;;;;;;;;;;5032812;28;19967;-78
2023/09/27 12:11:20;;;;;;;;;;;;;;;;;;5034234;28;19928;-77
2023/09/27 12:13:49;;;;;;;;;;;;;;;;;;5051658;28;20020;-77
2023/09/27 12:16:16;;;;;;;;;;;;;;;;;;5051281;28;19920;-78
2023/09/27 12:18:42;;;;;;;;;;;;;;;;;;5049961;28;19920;-78
2023/09/27 12:21:08;;;;;;;;;;;;;;;;;;5043655;28;19921;-84
2023/09/27 12:23:34;;;;;;;;;;;;;;;;;;5049534;28;20029;-79
2023/09/27 12:26:00;;;;;;;;;;;;;;;;;;5049902;28;19976;-80
2023/09/27 12:28:29;;;;;;;;;;;;;;;;;;5050525;28;19932;-81
2023/09/27 12:30:55;;;;;;;;;;;;;;;;;;5050573;28;19994;-80
2023/09/27 12:33:21;;;;;;;;;;;;;;;;;;5050407;28;19921;-80
2023/09/27 12:35:49;;;;;;;;;;;;;;;;;;5033935;28;19925;-82
2023/09/27 12:38:15;;;;;;;;;;;;;;;;;;5049780;28;19927;-80
2023/09/27 12:40:41;;;;;;;;;;;;;;;;;;5048847;28;19968;-80
2023/09/27 12:43:07;;;;;;;;;;;;;;;;;;5050509;28;19975;-80
2023/09/27 12:45:33;;;;;;;;;;;;;;;;;;5038929;28;19928;-80
2023/09/27 12:47:59;;;;;;;;;;;;;;;;;;5047259;28;19987;-83
2023/09/27 12:50:28;;;;;;;;;;;;;;;;;;5048006;28;19921;-83
2023/09/27 12:52:54;;;;;;;;;;;;;;;;;;5058480;28;19920;-82
2023/09/27 12:55:20;;;;;;;;;;;;;;;;;;5054377;28;19935;-82
2023/09/27 12:57:47;;;;;;;;;;;;;;;;;;5054423;28;20336;-83
2023/09/27 13:00:13;;;;;;;;;;;;;;;;;;5065682;28;19924;-83
2023/09/27 13:02:39;;;;;;;;;;;;;;;;;;5045611;28;20362;-83
2023/09/27 13:05:05;;;;;;;;;;;;;;;;;;5054529;28;20012;-82
2023/09/27 13:07:31;;;;;;;;;;;;;;;;;;5037995;28;19924;-79
2023/09/27 13:09:57;;;;;;;;;;;;;;;;;;5052237;28;19974;-81
2023/09/27 13:12:23;;;;;;;;;;;;;;;;;;5054049;28;19920;-80
2023/09/27 13:14:49;;;;;;;;;;;;;;;;;;5048531;28;19925;-81
2023/09/27 13:17:15;;;;;;;;;;;;;;;;;;5050291;28;19921;-80
2023/09/27 13:19:41;;;;;;;;;;;;;;;;;;5050658;28;19921;-81
2023/09/27 13:22:07;;;;;;;;;;;;;;;;;;5033723;28;20035;-82
2023/09/27 13:24:33;;;;;;;;;;;;;;;;;;5049465;28;19927;-82
2023/09/27 13:26:59;;;;;;;;;;;;;;;;;;5050461;28;19975;-81
2023/09/27 13:29:25;;;;;;;;;;;;;;;;;;5053215;28;20028;-81
2023/09/27 13:31:51;;;;;;;;;;;;;;;;;;5052953;28;19991;-81
2023/09/27 13:34:17;;;;;;;;;;;;;;;;;;5050031;28;20440;-81
2023/09/27 13:36:43;;;;;;;;;;;;;;;;;;5034071;28;19921;-81
2023/09/27 13:39:16;;;;;;;;;;;;;;;;;;5032019;28;20294;-81
2023/09/27 13:41:42;;;;;;;;;;;;;;;;;;5032645;28;20367;-80
2023/09/27 13:44:08;;;;;;;;;;;;;;;;;;5045884;28;20357;-82
2023/09/27 13:46:34;;;;;;;;;;;;;;;;;;5055633;28;19971;-78
2023/09/27 13:49:00;;;;;;;;;;;;;;;;;;5057497;28;20342;-78
2023/09/27 13:51:26;;;;;;;;;;;;;;;;;;5052823;28;20365;-78
2023/09/27 13:53:52;;;;;;;;;;;;;;;;;;5051763;28;20281;-79
2023/09/27 13:56:18;;;;;;;;;;;;;;;;;;5047662;28;19971;-77
2023/09/27 13:58:44;;;;;;;;;;;;;;;;;;5072842;28;19970;-77
2023/09/27 14:01:10;;;;;;;;;;;;;;;;;;5070291;28;19927;-77
2023/09/27 14:03:36;;;;;;;;;;;;;;;;;;5071931;28;19920;-77
2023/09/27 14:06:03;;;;;;;;;;;;;;;;;;5070946;28;20003;-77
2023/09/27 14:08:29;;;;;;;;;;;;;;;;;;5071754;28;20008;-76
2023/09/27 14:10:55;;;;;;;;;;;;;;;;;;5070994;28;20191;-82
2023/09/27 14:13:21;;;;;;;;;;;;;;;;;;5072652;28;19920;-77
2023/09/27 14:15:47;;;;;;;;;;;;;;;;;;5065367;28;20255;-77
2023/09/27 14:18:13;;;;;;;;;;;;;;;;;;5049212;28;19928;-77
2023/09/27 14:20:39;;;;;;;;;;;;;;;;;;5048926;28;19967;-77
2023/09/27 14:23:05;;;;;;;;;;;;;;;;;;5071364;28;19921;-77
2023/09/27 14:25:31;;;;;;;;;;;;;;;;;;5054052;28;19927;-77
2023/09/27 14:27:57;;;;;;;;;;;;;;;;;;5072643;28;19924;-73
2023/09/27 14:30:24;;;;;;;;;;;;;;;;;;5064246;28;19927;-70
2023/09/27 14:32:50;;;;;;;;;;;;;;;;;;5071782;28;20011;-70
2023/09/27 14:35:16;;;;;;;;;;;;;;;;;;5070788;28;20013;-70
2023/09/27 14:37:42;;;;;;;;;;;;;;;;;;5038604;28;19921;-74
2023/09/27 14:40:09;;;;;;;;;;;;;;;;;;5046362;28;20377;-77
2023/09/27 14:42:35;;;;;;;;;;;;;;;;;;5058055;28;20011;-76
2023/09/27 14:45:01;;;;;;;;;;;;;;;;;;5071709;28;19920;-74
2023/09/27 14:47:27;;;;;;;;;;;;;;;;;;5058856;28;19929;-72
2023/09/27 14:49:56;;;;;;;;;;;;;;;;;;5072056;28;19966;-80
2023/09/27 14:52:22;;;;;;;;;;;;;;;;;;5071890;28;20011;-78
2023/09/27 14:54:48;;;;;;;;;;;;;;;;;;5070325;28;20332;-79
2023/09/27 14:57:15;;;;;;;;;;;;;;;;;;5071396;28;19924;-76
2023/09/27 14:59:41;;;;;;;;;;;;;;;;;;5056068;28;20003;-74
2023/09/27 15:02:07;;;;;;;;;;;;;;;;;;5070714;28;20369;-82
2023/09/27 15:04:33;;;;;;;;;;;;;;;;;;5068744;28;19924;-81
2023/09/27 15:06:59;;;;;;;;;;;;;;;;;;5070821;28;19926;-80
2023/09/27 15:09:25;;;;;;;;;;;;;;;;;;5052838;28;19921;-78
2023/09/27 15:11:51;;;;;;;;;;;;;;;;;;5071150;28;19973;-76
2023/09/27 15:14:17;;;;;;;;;;;;;;;;;;5071274;28;19924;-78
2023/09/27 15:16:43;;;;;;;;;;;;;;;;;;5069978;28;20345;-78
2023/09/27 15:19:09;;;;;;;;;;;;;;;;;;5068721;28;19924;-79
2023/09/27 15:21:36;;;;;;;;;;;;;;;;;;5050627;28;19920;-77
2023/09/27 15:24:02;;;;;;;;;;;;;;;;;;5050822;28;19929;-79
2023/09/27 15:26:28;;;;;;;;;;;;;;;;;;5064310;28;20305;-70
2023/09/27 15:28:55;;;;;;;;;;;;;;;;;;5060442;28;19920;-69
2023/09/27 15:31:21;;;;;;;;;;;;;;;;;;5048287;28;19926;-75
2023/09/27 15:33:49;;;;;;;;;;;;;;;;;;5070808;28;20273;-77
2023/09/27 15:36:15;;;;;;;;;;;;;;;;;;5071693;28;20003;-74
2023/09/27 15:38:43;;;;;;;;;;;;;;;;;;5070919;28;20034;-76
2023/09/27 15:41:09;;;;;;;;;;;;;;;;;;5057694;28;19975;-77
2023/09/27 15:43:35;;;;;;;;;;;;;;;;;;5032590;28;19929;-75
2023/09/27 15:46:02;;;;;;;;;;;;;;;;;;5039536;28;19982;-79
2023/09/27 15:48:30;;;;;;;;;;;;;;;;;;5050815;28;19924;-77
2023/09/27 15:50:56;;;;;;;;;;;;;;;;;;5051104;28;19920;-68
2023/09/27 15:53:22;;;;;;;;;;;;;;;;;;5049579;28;20384;-68
2023/09/27 15:55:47;;;;;;;;;;;;;;;;;;5031054;28;19944;-69
2023/09/27 15:58:14;;;;;;;;;;;;;;;;;;5057994;28;19921;-69
2023/09/27 16:00:42;;;;;;;;;;;;;;;;;;5052306;28;19921;-69
2023/09/27 16:03:08;;;;;;;;;;;;;;;;;;5040940;28;19921;-70
2023/09/27 16:05:34;;;;;;;;;;;;;;;;;;5063435;28;20285;-69
2023/09/27 16:08:00;;;;;;;;;;;;;;;;;;5034465;28;19928;-77
2023/09/27 16:10:26;;;;;;;;;;;;;;;;;;5049141;28;20011;-77
2023/09/27 16:12:52;;;;;;;;;;;;;;;;;;5067624;28;19920;-77
2023/09/27 16:15:18;;;;;;;;;;;;;;;;;;5059099;28;20004;-77
2023/09/27 16:17:43;;;;;;;;;;;;;;;;;;5068059;28;19928;-78
2023/09/27 16:20:09;;;;;;;;;;;;;;;;;;5069810;28;19926;-76
2023/09/27 16:22:35;;;;;;;;;;;;;;;;;;5069835;28;19975;-76
2023/09/27 16:25:05;;;;;;;;;;;;;;;;;;5069601;28;19928;-77
2023/09/27 16:27:31;;;;;;;;;;;;;;;;;;5044218;28;19928;-77
2023/09/27 16:29:57;;;;;;;;;;;;;;;;;;5050464;28;19930;-77
2023/09/27 16:32:23;;;;;;;;;;;;;;;;;;5057181;28;19920;-77
2023/09/27 16:34:49;;;;;;;;;;;;;;;;;;5051547;28;19920;-77
2023/09/27 16:37:15;;;;;;;;;;;;;;;;;;5067407;28;19920;-78
2023/09/27 16:39:41;;;;;;;;;;;;;;;;;;5073059;28;20417;-77